createdAt,value
2018-01-02T00:00:11.789Z,1.75
2018-01-02T00:02:41.037Z,1.70
2018-01-02T00:05:10.282Z,2.05
2018-01-02T00:07:39.557Z,2.53
2018-01-02T00:10:08.800Z,3.22
2018-01-02T00:12:38.838Z,1.90
2018-01-02T00:15:08.084Z,2.92
2018-01-02T00:17:37.330Z,1.60
2018-01-02T00:20:06.608Z,3.75
2018-01-02T00:22:35.869Z,2.30
2018-01-02T00:25:05.102Z,3.12
2018-01-02T00:27:34.368Z,2.25
2018-01-02T00:30:03.625Z,1.37
2018-01-02T00:32:32.869Z,2.42
2018-01-02T00:35:02.129Z,1.50
2018-01-02T00:37:31.374Z,1.73
2018-01-02T00:40:00.614Z,1.40
2018-01-02T00:42:30.662Z,1.62
2018-01-02T00:44:59.942Z,1.37
2018-01-02T00:47:29.181Z,2.00
2018-01-02T00:49:58.463Z,3.00
2018-01-02T00:52:27.681Z,1.40
2018-01-02T00:54:56.925Z,1.20
2018-01-02T00:57:26.942Z,1.50
2018-01-02T00:59:56.959Z,3.92
2018-01-02T01:02:26.993Z,1.80
2018-01-02T01:04:56.237Z,1.77
2018-01-02T01:07:25.473Z,1.65
2018-01-02T01:09:56.330Z,2.95
2018-01-02T01:12:25.567Z,1.92
2018-01-02T01:14:54.806Z,1.45
2018-01-02T01:17:24.843Z,1.23
2018-01-02T01:19:54.077Z,1.27
2018-01-02T01:22:23.313Z,5.28
2018-01-02T01:24:53.326Z,3.03
2018-01-02T01:27:22.564Z,5.75
2018-01-02T01:29:51.836Z,5.25
2018-01-02T01:32:21.839Z,3.75
2018-01-02T01:34:51.083Z,2.35
2018-01-02T01:37:20.384Z,3.80
2018-01-02T01:39:49.634Z,2.85
2018-01-02T01:42:18.846Z,2.05
2018-01-02T01:44:48.093Z,2.25
2018-01-02T01:47:17.346Z,2.33
2018-01-02T01:49:47.927Z,2.55
2018-01-02T01:52:17.953Z,1.42
2018-01-02T01:54:47.192Z,1.87
2018-01-02T01:57:17.213Z,3.58
2018-01-02T01:59:47.234Z,2.47
2018-01-02T02:02:17.257Z,1.62
2018-01-02T02:04:46.511Z,1.62
2018-01-02T02:07:15.748Z,3.47
2018-01-02T02:09:45.871Z,2.67
2018-01-02T02:12:15.104Z,4.05
2018-01-02T02:14:44.353Z,2.67
2018-01-02T02:17:14.370Z,4.75
2018-01-02T02:19:43.631Z,8.68
2018-01-02T02:22:12.895Z,3.20
2018-01-02T02:24:42.138Z,12.05
2018-01-02T02:27:11.384Z,4.87
2018-01-02T02:29:40.636Z,3.83
2018-01-02T02:32:09.885Z,4.20
2018-01-02T02:34:39.980Z,2.35
2018-01-02T02:37:09.201Z,2.65
2018-01-02T02:39:39.210Z,2.90
2018-01-02T02:42:09.243Z,5.22
2018-01-02T02:44:38.512Z,3.95
2018-01-02T02:47:07.727Z,4.72
2018-01-02T02:49:36.993Z,5.28
2018-01-02T02:52:06.229Z,2.08
2018-01-02T02:54:35.514Z,5.47
2018-01-02T02:57:05.532Z,3.75
2018-01-02T02:59:34.769Z,1.50
2018-01-02T03:02:04.022Z,3.67
2018-01-02T03:04:33.297Z,2.97
2018-01-02T03:07:02.844Z,1.30
2018-01-02T03:09:32.093Z,3.03
2018-01-02T03:12:01.330Z,1.65
2018-01-02T03:14:31.542Z,2.40
2018-01-02T03:17:00.806Z,2.05
2018-01-02T03:19:30.040Z,7.18
2018-01-02T03:21:59.291Z,5.10
2018-01-02T03:24:28.666Z,5.20
2018-01-02T03:26:58.685Z,1.60
2018-01-02T03:29:28.697Z,3.62
2018-01-02T03:31:58.721Z,4.05
2018-01-02T03:34:28.737Z,4.15
2018-01-02T03:36:58.015Z,2.95
2018-01-02T03:39:27.256Z,5.57
2018-01-02T03:41:56.505Z,6.32
2018-01-02T03:44:25.769Z,4.18
2018-01-02T03:46:55.028Z,4.25
2018-01-02T03:49:25.051Z,5.97
2018-01-02T03:51:54.317Z,6.82
2018-01-02T03:54:23.565Z,4.78
2018-01-02T03:56:52.847Z,4.00
2018-01-02T03:59:22.868Z,4.32
2018-01-02T04:01:52.135Z,3.50
2018-01-02T04:04:21.378Z,4.18
2018-01-02T04:06:50.634Z,5.25
2018-01-02T04:09:19.921Z,6.47
2018-01-02T04:11:49.157Z,2.53
2018-01-02T04:14:19.270Z,5.97
2018-01-02T04:16:48.505Z,12.32
2018-01-02T04:19:17.755Z,2.60
2018-01-02T04:21:47.001Z,7.93
2018-01-02T04:24:16.254Z,2.80
2018-01-02T04:26:45.520Z,1.20
2018-01-02T04:29:14.768Z,2.28
2018-01-02T04:31:44.781Z,2.97
2018-01-02T04:34:14.807Z,1.80
2018-01-02T04:36:44.054Z,1.98
2018-01-02T04:39:13.302Z,1.30
2018-01-02T04:41:42.590Z,2.80
2018-01-02T04:44:11.839Z,2.75
2018-01-02T04:46:41.084Z,1.52
2018-01-02T04:49:10.338Z,3.97
2018-01-02T04:51:40.289Z,5.57
2018-01-02T04:54:09.534Z,2.37
2018-01-02T04:56:38.813Z,1.23
2018-01-02T04:59:08.810Z,5.57
2018-01-02T05:01:38.090Z,1.30
2018-01-02T05:04:07.313Z,4.87
2018-01-02T05:06:37.360Z,1.85
2018-01-02T05:09:06.614Z,3.78
2018-01-02T05:11:35.844Z,2.55
2018-01-02T05:14:05.871Z,6.40
2018-01-02T05:16:35.113Z,8.32
2018-01-02T05:19:04.345Z,1.75
2018-01-02T05:21:34.364Z,1.62
2018-01-02T05:24:04.352Z,2.80
2018-01-02T05:26:33.617Z,3.35
2018-01-02T05:29:02.867Z,6.32
2018-01-02T05:31:32.099Z,6.15
2018-01-02T05:34:01.355Z,5.70
2018-01-02T05:36:30.592Z,4.62
2018-01-02T05:39:00.607Z,4.82
2018-01-02T05:41:29.884Z,2.15
2018-01-02T05:43:59.130Z,4.00
2018-01-02T05:46:28.369Z,8.75
2018-01-02T05:48:57.646Z,4.80
2018-01-02T05:51:26.909Z,4.20
2018-01-02T05:53:56.137Z,2.05
2018-01-02T05:56:25.399Z,3.47
2018-01-02T05:58:55.409Z,3.67
2018-01-02T06:01:24.679Z,2.55
2018-01-02T06:03:53.913Z,1.60
2018-01-02T06:06:23.925Z,5.03
2018-01-02T06:08:53.953Z,4.18
2018-01-02T06:11:23.201Z,4.10
2018-01-02T06:13:52.463Z,4.22
2018-01-02T06:16:21.692Z,3.65
2018-01-02T06:18:50.941Z,5.30
2018-01-02T06:21:20.187Z,3.75
2018-01-02T06:23:50.219Z,5.80
2018-01-02T06:26:19.466Z,5.30
2018-01-02T06:28:48.699Z,4.25
2018-01-02T06:31:17.968Z,8.02
2018-01-02T06:33:47.215Z,2.65
2018-01-02T06:36:16.426Z,4.55
2018-01-02T06:38:45.741Z,4.22
2018-01-02T06:41:14.938Z,4.20
2018-01-02T06:43:44.210Z,1.30
2018-01-02T06:46:13.455Z,2.10
2018-01-02T06:48:43.486Z,2.22
2018-01-02T06:51:12.725Z,3.70
2018-01-02T06:53:42.123Z,5.72
2018-01-02T06:56:11.392Z,2.15
2018-01-02T06:58:40.626Z,5.72
2018-01-02T07:01:09.877Z,6.65
2018-01-02T07:03:39.118Z,4.87
2018-01-02T07:06:08.353Z,6.43
2018-01-02T07:08:38.379Z,12.05
2018-01-02T07:11:08.403Z,8.30
2018-01-02T07:13:38.409Z,2.60
2018-01-02T07:16:07.688Z,5.43
2018-01-02T07:18:36.927Z,4.78
2018-01-02T07:21:06.175Z,3.15
2018-01-02T07:23:35.416Z,4.85
2018-01-02T07:26:05.444Z,5.03
2018-01-02T07:28:34.784Z,1.67
2018-01-02T07:31:04.026Z,2.35
2018-01-02T07:33:34.054Z,2.85
2018-01-02T07:36:03.274Z,2.80
2018-01-02T07:38:32.538Z,2.00
2018-01-02T07:41:01.771Z,4.37
2018-01-02T07:43:31.010Z,4.25
2018-01-02T07:46:00.256Z,1.65
2018-01-02T07:48:29.539Z,6.00
2018-01-02T07:50:58.841Z,3.30
2018-01-02T07:53:28.084Z,5.18
2018-01-02T07:55:57.528Z,4.65
2018-01-02T07:58:27.488Z,5.22
2018-01-02T08:00:56.728Z,3.08
2018-01-02T08:03:26.006Z,3.60
2018-01-02T08:05:55.247Z,8.38
2018-01-02T08:08:25.283Z,2.17
2018-01-02T08:10:54.545Z,5.70
2018-01-02T08:13:23.776Z,3.85
2018-01-02T08:15:53.021Z,5.00
2018-01-02T08:18:22.264Z,8.25
2018-01-02T08:20:51.529Z,8.80
2018-01-02T08:23:20.765Z,11.73
2018-01-02T08:25:50.011Z,6.30
2018-01-02T08:28:19.245Z,3.15
2018-01-02T08:30:48.510Z,4.50
2018-01-02T08:33:17.755Z,6.18
2018-01-02T08:35:47.008Z,6.62
2018-01-02T08:38:16.264Z,6.43
2018-01-02T08:40:45.500Z,10.43
2018-01-02T08:43:14.748Z,6.70
2018-01-02T08:45:43.991Z,7.40
2018-01-02T08:48:13.237Z,4.60
2018-01-02T08:50:42.509Z,8.82
2018-01-02T08:53:11.767Z,5.45
2018-01-02T08:55:41.010Z,7.37
2018-01-02T08:58:10.268Z,7.00
2018-01-02T09:00:39.533Z,8.73
2018-01-02T09:03:08.798Z,10.52
2018-01-02T09:05:38.037Z,3.55
2018-01-02T09:08:07.325Z,9.25
2018-01-02T09:10:36.559Z,4.65
2018-01-02T09:13:11.312Z,5.10
2018-01-02T09:15:40.554Z,4.35
2018-01-02T09:18:10.070Z,5.60
2018-01-02T09:20:39.339Z,5.82
2018-01-02T09:23:08.584Z,6.32
2018-01-02T09:25:37.829Z,3.55
2018-01-02T09:28:07.064Z,4.10
2018-01-02T09:30:36.330Z,5.95
2018-01-02T09:33:05.580Z,5.53
2018-01-02T09:35:35.599Z,3.87
2018-01-02T09:38:05.615Z,6.70
2018-01-02T09:40:35.627Z,4.25
2018-01-02T09:43:04.880Z,6.28
2018-01-02T09:45:34.179Z,5.20
2018-01-02T09:48:03.414Z,4.43
2018-01-02T09:50:32.690Z,6.47
2018-01-02T09:53:01.939Z,3.70
2018-01-02T09:55:31.186Z,10.63
2018-01-02T09:58:00.433Z,8.57
2018-01-02T10:00:30.446Z,2.08
2018-01-02T10:03:00.472Z,4.75
2018-01-02T10:05:29.717Z,4.15
2018-01-02T10:07:58.957Z,4.55
2018-01-02T10:10:28.992Z,12.37
2018-01-02T10:12:58.248Z,5.12
2018-01-02T10:15:27.509Z,5.12
2018-01-02T10:17:56.756Z,7.87
2018-01-02T10:20:25.991Z,3.25
2018-01-02T10:22:55.247Z,3.72
2018-01-02T10:25:24.557Z,7.97
2018-01-02T10:27:53.828Z,7.20
2018-01-02T10:30:23.066Z,2.87
2018-01-02T10:32:52.327Z,3.70
2018-01-02T10:35:21.640Z,8.85
2018-01-02T10:37:50.841Z,6.53
2018-01-02T10:40:20.095Z,6.25
2018-01-02T10:42:49.357Z,4.65
2018-01-02T10:45:18.594Z,8.27
2018-01-02T10:47:47.845Z,5.82
2018-01-02T10:50:17.092Z,3.78
2018-01-02T10:52:46.332Z,3.37
2018-01-02T10:55:15.594Z,4.12
2018-01-02T10:57:44.849Z,6.22
2018-01-02T11:00:14.692Z,4.28
2018-01-02T11:02:43.934Z,4.55
2018-01-02T11:05:13.172Z,2.70
2018-01-02T11:07:42.436Z,6.35
2018-01-02T11:10:11.664Z,3.78
2018-01-02T11:12:41.708Z,4.72
2018-01-02T11:15:10.941Z,6.50
2018-01-02T11:17:40.163Z,3.55
2018-01-02T11:20:09.463Z,3.10
2018-01-02T11:22:38.723Z,4.62
2018-01-02T11:25:08.096Z,2.10
2018-01-02T11:27:37.312Z,4.28
2018-01-02T11:30:06.562Z,4.37
2018-01-02T11:32:35.835Z,8.63
2018-01-02T11:42:10.123Z,2.55
2018-01-02T11:44:39.429Z,8.20
2018-01-02T11:47:08.695Z,6.72
2018-01-02T11:49:37.960Z,4.97
2018-01-02T11:52:07.184Z,4.20
2018-01-02T11:54:36.457Z,11.60
2018-01-02T11:57:05.705Z,4.85
2018-01-02T11:59:34.951Z,3.60
2018-01-02T12:02:04.210Z,4.87
2018-01-02T12:04:33.473Z,7.60
2018-01-02T12:07:02.724Z,3.03
2018-01-02T12:09:31.981Z,7.75
2018-01-02T12:12:01.254Z,5.25
2018-01-02T12:14:30.498Z,4.55
2018-01-02T12:17:00.605Z,10.82
2018-01-02T12:19:29.888Z,6.00
2018-01-02T12:21:59.179Z,3.33
2018-01-02T12:24:28.397Z,2.65
2018-01-02T12:26:57.680Z,12.10
2018-01-02T12:29:26.954Z,5.10
2018-01-02T12:32:01.971Z,4.10
2018-01-02T12:34:31.225Z,6.93
2018-01-02T12:37:00.474Z,5.03
2018-01-02T12:39:30.489Z,4.03
2018-01-02T12:42:00.478Z,6.37
2018-01-02T12:44:29.747Z,8.43
2018-01-02T12:46:59.064Z,13.93
2018-01-02T12:49:28.354Z,8.05
2018-01-02T12:51:57.581Z,7.65
2018-01-02T12:54:26.883Z,8.68
2018-01-02T12:56:56.124Z,5.93
2018-01-02T12:59:26.146Z,4.30
2018-01-02T13:01:55.372Z,3.58
2018-01-02T13:04:24.645Z,8.95
2018-01-02T13:06:53.898Z,4.87
2018-01-02T13:09:23.135Z,4.40
2018-01-02T13:11:53.162Z,3.75
2018-01-02T13:14:22.385Z,11.68
2018-01-02T13:16:51.630Z,8.35
2018-01-02T13:19:20.882Z,5.35
2018-01-02T13:21:50.116Z,2.83
2018-01-02T13:24:19.358Z,3.90
2018-01-02T13:26:48.617Z,4.00
2018-01-02T13:29:17.845Z,2.47
2018-01-02T13:31:47.082Z,2.50
2018-01-02T13:34:16.352Z,3.20
2018-01-02T13:36:45.617Z,2.20
2018-01-02T13:39:14.861Z,2.78
2018-01-02T13:41:44.190Z,4.32
2018-01-02T13:44:13.442Z,3.17
2018-01-02T13:46:43.448Z,9.05
2018-01-02T13:49:13.581Z,5.75
2018-01-02T13:51:43.611Z,2.00
2018-01-02T13:54:12.848Z,6.03
2018-01-02T13:56:42.103Z,6.87
2018-01-02T13:59:11.356Z,2.20
2018-01-02T14:01:40.602Z,4.35
2018-01-02T14:04:09.848Z,4.95
2018-01-02T14:06:39.096Z,4.60
2018-01-02T14:09:09.094Z,5.47
2018-01-02T14:11:39.233Z,4.70
2018-01-02T14:14:08.587Z,5.62
2018-01-02T14:16:38.740Z,9.10
2018-01-02T14:19:08.779Z,5.28
2018-01-02T14:21:38.072Z,11.50
2018-01-02T14:24:07.325Z,6.12
2018-01-02T14:26:36.587Z,7.50
2018-01-02T14:29:05.809Z,4.87
2018-01-02T14:31:35.089Z,10.43
2018-01-02T14:34:04.366Z,5.85
2018-01-02T14:36:33.596Z,5.75
2018-01-02T14:39:02.909Z,6.43
2018-01-02T14:41:32.175Z,6.00
2018-01-02T14:44:01.417Z,6.53
2018-01-02T14:46:30.682Z,7.40
2018-01-02T14:48:59.955Z,12.15
2018-01-02T14:51:29.984Z,14.87
2018-01-02T14:53:59.242Z,7.50
2018-01-02T14:56:28.483Z,9.15
2018-01-02T14:58:57.774Z,3.90
2018-01-02T15:01:28.185Z,6.47
2018-01-02T15:03:58.426Z,10.25
2018-01-02T15:06:28.845Z,7.78
2018-01-02T15:08:58.222Z,6.47
2018-01-02T15:11:27.432Z,7.82
2018-01-02T15:13:57.472Z,4.75
2018-01-02T15:16:27.457Z,8.20
2018-01-02T15:18:56.722Z,5.80
2018-01-02T15:21:26.735Z,4.70
2018-01-02T15:23:57.283Z,5.90
2018-01-02T15:26:26.512Z,12.25
2018-01-02T15:28:55.794Z,14.75
2018-01-02T15:31:25.041Z,7.78
2018-01-02T15:33:54.291Z,14.15
2018-01-02T15:36:23.549Z,4.05
2018-01-02T15:38:52.775Z,9.00
2018-01-02T15:41:22.014Z,9.52
2018-01-02T15:43:52.049Z,10.05
2018-01-02T15:46:21.302Z,4.82
2018-01-02T15:48:52.586Z,6.93
2018-01-02T15:51:21.847Z,12.30
2018-01-02T15:53:52.220Z,10.35
2018-01-02T15:56:21.464Z,12.13
2018-01-02T15:58:52.117Z,13.15
2018-01-02T16:01:21.373Z,8.73
2018-01-02T16:03:50.604Z,9.43
2018-01-02T16:06:19.859Z,6.90
2018-01-02T16:08:49.107Z,10.15
2018-01-02T16:11:18.411Z,11.82
2018-01-02T16:13:47.661Z,11.10
2018-01-02T16:16:16.918Z,10.88
2018-01-02T16:18:46.953Z,11.95
2018-01-02T16:21:16.187Z,11.02
2018-01-02T16:23:46.232Z,6.72
2018-01-02T16:26:15.570Z,6.85
2018-01-02T16:28:45.575Z,10.15
2018-01-02T16:31:15.683Z,10.65
2018-01-02T16:33:44.922Z,8.25
2018-01-02T16:36:14.151Z,7.40
2018-01-02T16:38:43.423Z,5.87
2018-01-02T16:41:12.670Z,7.47
2018-01-02T16:43:41.905Z,10.00
2018-01-02T16:46:11.197Z,13.10
2018-01-02T16:48:40.468Z,10.20
2018-01-02T16:51:09.701Z,8.07
2018-01-02T16:53:38.974Z,11.70
2018-01-02T16:56:08.222Z,7.90
2018-01-02T16:58:37.481Z,10.68
2018-01-02T17:01:06.773Z,10.63
2018-01-02T17:03:36.020Z,8.00
2018-01-02T17:06:05.261Z,10.27
2018-01-02T17:08:34.604Z,7.57
2018-01-02T17:11:03.901Z,12.98
2018-01-02T17:13:34.026Z,8.10
2018-01-02T17:16:03.285Z,7.47
2018-01-02T17:18:32.582Z,9.07
2018-01-02T17:21:01.823Z,14.52
2018-01-02T17:23:31.081Z,5.85
2018-01-02T17:26:00.325Z,7.18
2018-01-02T17:28:29.578Z,11.68
2018-01-02T17:30:58.818Z,11.10
2018-01-02T17:33:28.081Z,10.77
2018-01-02T17:35:57.320Z,8.00
2018-01-02T17:38:26.565Z,12.43
2018-01-02T17:40:55.813Z,6.43
2018-01-02T17:43:25.839Z,8.52
2018-01-02T17:45:55.254Z,7.90
2018-01-02T17:48:24.509Z,15.45
2018-01-02T17:50:54.508Z,18.02
2018-01-02T17:53:23.757Z,12.45
2018-01-02T17:55:53.085Z,13.95
2018-01-02T17:58:23.055Z,8.00
2018-01-02T18:00:53.069Z,10.48
2018-01-02T18:03:22.350Z,14.23
2018-01-02T18:05:51.605Z,13.05
2018-01-02T18:08:20.841Z,10.27
2018-01-02T18:10:50.100Z,12.70
2018-01-02T18:13:19.351Z,15.55
2018-01-02T18:15:49.366Z,16.70
2018-01-02T18:18:18.630Z,11.68
2018-01-02T18:20:47.867Z,10.40
2018-01-02T18:23:17.876Z,10.88
2018-01-02T18:25:47.161Z,10.13
2018-01-02T18:28:16.633Z,14.00
2018-01-02T18:30:45.873Z,9.65
2018-01-02T18:33:16.645Z,11.93
2018-01-02T18:35:45.889Z,19.20
2018-01-02T18:38:15.137Z,13.52
2018-01-02T18:40:45.177Z,14.60
2018-01-02T18:43:14.416Z,18.10
2018-01-02T18:45:43.671Z,21.62
2018-01-02T18:48:13.518Z,18.23
2018-01-02T18:50:42.753Z,14.25
2018-01-02T18:53:12.777Z,17.37
2018-01-02T18:55:42.021Z,21.87
2018-01-02T18:58:12.792Z,19.35
2018-01-02T19:00:42.000Z,18.85
2018-01-02T19:03:12.018Z,17.33
2018-01-02T19:05:42.037Z,18.23
2018-01-02T19:08:12.058Z,14.77
2018-01-02T19:10:42.074Z,12.50
2018-01-02T19:13:11.367Z,12.32
2018-01-02T19:15:40.570Z,13.93
2018-01-02T19:18:10.615Z,14.52
2018-01-02T19:20:39.883Z,13.68
2018-01-02T19:23:09.129Z,13.75
2018-01-02T19:25:38.409Z,12.95
2018-01-02T19:28:07.644Z,9.40
2018-01-02T19:33:12.961Z,13.88
2018-01-02T19:35:42.218Z,17.70
2018-01-02T19:38:11.626Z,8.00
2018-01-02T19:40:40.828Z,9.95
2018-01-02T19:43:10.176Z,8.63
2018-01-02T19:45:39.413Z,12.77
2018-01-02T19:48:08.656Z,16.85
2018-01-02T19:50:37.934Z,11.15
2018-01-02T19:53:07.188Z,15.82
2018-01-02T19:55:36.527Z,18.70
2018-01-02T19:58:05.751Z,13.13
2018-01-02T20:00:35.782Z,14.05
2018-01-02T20:03:05.021Z,13.05
2018-01-02T20:05:34.270Z,10.10
2018-01-02T20:08:03.525Z,11.40
2018-01-02T20:10:32.821Z,17.95
2018-01-02T20:13:02.024Z,18.60
2018-01-02T20:15:36.095Z,12.93
2018-01-02T20:18:10.994Z,14.45
2018-01-02T20:20:41.039Z,9.90
2018-01-02T20:23:10.273Z,8.55
2018-01-02T20:25:39.518Z,11.50
2018-01-02T20:28:09.538Z,16.00
2018-01-02T20:30:39.562Z,14.35
2018-01-02T20:33:08.815Z,9.52
2018-01-02T20:35:38.075Z,12.65
2018-01-02T20:38:07.311Z,8.50
2018-01-02T20:40:36.725Z,14.00
2018-01-02T20:43:05.965Z,11.43
2018-01-02T20:45:35.211Z,7.60
2018-01-02T20:48:04.478Z,14.43
2018-01-02T20:50:33.730Z,13.80
2018-01-02T20:53:02.978Z,15.80
2018-01-02T20:55:32.252Z,9.00
2018-01-02T20:58:01.525Z,8.25
2018-01-02T21:00:30.836Z,12.23
2018-01-02T21:03:00.132Z,12.45
2018-01-02T21:05:29.359Z,9.93
2018-01-02T21:07:58.610Z,7.30
2018-01-02T21:10:27.860Z,10.90
2018-01-02T21:12:57.122Z,17.62
2018-01-02T21:15:26.402Z,15.95
2018-01-02T21:17:55.642Z,13.32
2018-01-02T21:20:25.037Z,17.05
2018-01-02T21:22:54.388Z,9.40
2018-01-02T21:25:23.664Z,10.55
2018-01-02T21:27:52.891Z,15.15
2018-01-02T21:30:22.151Z,10.02
2018-01-02T21:32:51.419Z,11.80
2018-01-02T21:35:20.669Z,10.02
2018-01-02T21:37:49.930Z,10.00
2018-01-02T21:40:19.181Z,11.93
2018-01-02T21:42:48.422Z,12.68
2018-01-02T21:45:17.677Z,9.63
2018-01-02T21:47:46.944Z,6.65
2018-01-02T21:50:16.196Z,13.40
2018-01-02T21:52:45.463Z,5.95
2018-01-02T21:55:14.707Z,10.68
2018-01-02T21:57:43.969Z,7.22
2018-01-02T22:00:13.208Z,6.70
2018-01-02T22:02:42.466Z,9.50
2018-01-02T22:05:11.733Z,4.10
2018-01-02T22:07:41.730Z,7.37
2018-01-02T22:10:10.994Z,5.97
2018-01-02T22:12:40.278Z,5.37
2018-01-02T22:15:09.534Z,5.65
2018-01-02T22:17:39.549Z,6.90
2018-01-02T22:20:08.801Z,3.25
2018-01-02T22:22:38.061Z,8.02
2018-01-02T22:25:08.191Z,2.92
2018-01-02T22:27:37.403Z,7.12
2018-01-02T22:30:06.656Z,3.12
2018-01-02T22:32:35.967Z,10.93
2018-01-02T22:35:05.161Z,3.80
2018-01-02T22:37:34.415Z,4.93
2018-01-02T22:40:03.657Z,5.75
2018-01-02T22:42:32.902Z,4.65
2018-01-02T22:45:02.132Z,5.10
2018-01-02T22:47:31.407Z,5.47
2018-01-02T22:50:00.670Z,4.85
2018-01-02T22:52:30.689Z,6.55
2018-01-02T22:55:00.713Z,5.47
2018-01-02T22:57:29.960Z,2.53
2018-01-02T22:59:59.232Z,2.87
2018-01-02T23:02:28.489Z,4.60
2018-01-02T23:04:57.763Z,2.12
2018-01-02T23:07:27.027Z,2.80
2018-01-02T23:09:57.321Z,4.72
2018-01-02T23:12:27.339Z,3.30
2018-01-02T23:14:56.590Z,6.72
2018-01-02T23:17:25.859Z,3.28
2018-01-02T23:19:55.093Z,3.28
2018-01-02T23:22:24.366Z,8.18
2018-01-02T23:24:53.629Z,3.15
2018-01-02T23:27:23.644Z,3.08
2018-01-02T23:29:52.909Z,3.17
2018-01-02T23:32:22.140Z,6.87
2018-01-02T23:34:51.415Z,7.05
2018-01-02T23:37:20.663Z,4.62
2018-01-02T23:39:49.905Z,3.67
2018-01-02T23:42:19.155Z,6.20
2018-01-02T23:44:48.422Z,3.58
2018-01-02T23:47:17.674Z,3.08
2018-01-02T23:49:46.917Z,7.03
2018-01-02T23:52:16.165Z,3.62
2018-01-02T23:54:45.434Z,6.60
2018-01-02T23:57:14.685Z,3.40
2018-01-02T23:59:43.935Z,5.30
